LDZA Airport Information

Runway Information
Runway 04 Length 10669 ft width 148 ft
Elevation 353 ft Threshold ft Heading 47
Runway 22 Length 10669 ft Width 148 ft
Elevation 348 ft Threshold ft Heading 227
Airport Frequencies
Type APP Name APP Frequency 120.7 MHZ
Type ATIS Name ATIS Frequency 124.375 MHZ
Type GND Name GND Frequency 121.85 MHZ
Type INFO Name INFO Frequency 124.85 MHZ
Type RDR Name RADAR Frequency 120.7 MHZ
Type TWR Name TWR Frequency 118.3 MHZ
Airport Navaids
Type DME Name Iza Frequency 109500 KHZ
Type NDB Name Pisarovina Frequency 424 KHZ
Type NDB Name S.kKaljevec Frequency 350 KHZ
Type NDB Name Velika Gorica Frequency 325 KHZ
Type VOR-DME Name Zagreb Frequency 113700 KHZ
Type NDB Name Zagreb Frequency 367 KHZ
Airport Weather Information & NOTAM
ADDS - METARS form results

(1644 UTC 27 January 2023)
Data provider http://aviationweather.gov/metar/data/
 
METAR text: LDZA 271630Z 04007KT 360V080 8000 -SNRA FEW017 BKN040 01/M02 Q1017 TEMPO 4000
Conditions at: LDZA (ZAGREB/PLESO , HR) observed 1630 UTC 27 January 2023
Temperature: 1.0°C (34°F)
Dewpoint: -2.0°C (28°F) [RH = 80%]
Pressure (altimeter): 30.03 inches Hg (1017.0 mb)
Winds: from the NE (40 degrees) at 8 MPH (7 knots; 3.6 m/s)
Visibility: 5 miles ( 8 km)
Ceiling: 4000 feet AGL
Clouds: few clouds at 1700 feet AGL
broken clouds at 4000 feet AGL
Weather: -SN -RA  (light snow, light rain)

METAR text: LDZA 271600Z 04010KT 360V070 8000 -RASN BKN025 01/M02 Q1016 TEMPO 4000
Conditions at: LDZA (ZAGREB/PLESO , HR) observed 1600 UTC 27 January 2023
Temperature: 1.0°C (34°F)
Dewpoint: -2.0°C (28°F) [RH = 80%]
Pressure (altimeter): 30.00 inches Hg (1016.0 mb)
Winds: from the NE (40 degrees) at 12 MPH (10 knots; 5.1 m/s)
Visibility: 5 miles ( 8 km)
Ceiling: 2500 feet AGL
Clouds: broken clouds at 2500 feet AGL
Weather: -RA -SN  (light rain, light snow)

Forecast for: LDZA (ZAGREB/PLESO , HR)
Text: TAF LDZA 271125Z 2712/2812 04007KT 9999 SCT010 BKN040 TX03/2712Z TNM02/2804Z
Forecast period: 1200 UTC 27 January 2023 to 1200 UTC 28 January 2023
Forecast type: FROM: standard forecast or significant change
Winds: from the NE (40 degrees) at 8 MPH (7 knots; 3.6 m/s)
Visibility: 6 or more miles (10+ km)
Ceiling: 4000 feet AGL
Clouds: scattered clouds at 1000 feet AGL
broken clouds at 4000 feet AGL
Weather: no significant weather forecast for this period
Text: PROB40
Forecast period: 1200 to 2000 UTC 27 January 2023
Forecast type: TEMPORARY: The following changes expected for less than half the time period
Winds: from the NE (40 degrees) at 14 MPH (12 knots; 6.2 m/s)
Visibility: missing
Ceiling: unknown
Clouds: missing
Weather: no significant weather forecast for this period
Text: TEMPO 2712/2720 04012KT
Forecast period: 1700 UTC 27 January 2023 to 0800 UTC 28 January 2023
Forecast type: TEMPORARY: The following changes expected for less than half the time period
Visibility: 2.49 miles (4.01 km)
Ceiling: 1000 feet AGL
Clouds: overcast cloud deck at 1000 feet AGL
Weather: -SN  (light snow)